createdAt,value
2023-02-26T00:01:34.338Z,89.92
2023-02-26T00:04:04.991Z,89.96
2023-02-26T00:06:34.772Z,89.68
2023-02-26T00:09:03.433Z,89.38
2023-02-26T00:11:31.588Z,89.71
2023-02-26T00:13:59.729Z,90.05
2023-02-26T00:16:30.671Z,89.99
2023-02-26T00:19:02.278Z,89.89
2023-02-26T00:21:31.225Z,89.66
2023-02-26T00:24:00.478Z,90.11
2023-02-26T00:26:29.369Z,89.69
2023-02-26T00:28:58.022Z,90.15
2023-02-26T00:31:26.252Z,90.14
2023-02-26T00:33:54.922Z,90.11
2023-02-26T00:36:27.720Z,90.22
2023-02-26T00:39:07.936Z,90.65
2023-02-26T00:41:36.832Z,90.88
2023-02-26T00:44:04.843Z,90.97
2023-02-26T00:46:41.720Z,91.55
2023-02-26T00:49:19.167Z,92.08
2023-02-26T00:51:52.476Z,92.43
2023-02-26T00:54:22.257Z,92.25
2023-02-26T00:56:51.240Z,92.51
2023-02-26T00:59:19.394Z,93.01
2023-02-26T01:01:48.572Z,93.09
2023-02-26T01:04:17.856Z,92.78
2023-02-26T01:06:49.940Z,92.92
2023-02-26T01:09:25.479Z,93.18
2023-02-26T01:11:53.867Z,93.18
2023-02-26T01:14:22.189Z,93.27
2023-02-26T01:16:57.251Z,93.25
2023-02-26T01:19:34.238Z,93.61
2023-02-26T01:22:09.150Z,93.59
2023-02-26T01:24:38.366Z,93.50
2023-02-26T01:27:06.515Z,93.48
2023-02-26T01:29:34.258Z,93.16
2023-02-26T01:32:09.403Z,93.00
2023-02-26T01:34:43.143Z,92.59
2023-02-26T01:37:23.704Z,92.32
2023-02-26T01:40:03.904Z,92.19
2023-02-26T01:42:36.977Z,92.42
2023-02-26T01:45:12.055Z,92.08
2023-02-26T01:47:46.492Z,91.78
2023-02-26T01:50:18.361Z,91.79
2023-02-26T01:53:22.314Z,91.74
2023-02-26T01:55:53.699Z,91.86
2023-02-26T01:58:22.539Z,91.80
2023-02-26T02:00:50.119Z,92.10
2023-02-26T02:03:17.714Z,91.92
2023-02-26T02:05:49.778Z,92.15
2023-02-26T02:08:17.910Z,92.63
2023-02-26T02:10:49.821Z,92.66
2023-02-26T02:13:30.639Z,92.88
2023-02-26T02:16:09.370Z,93.24
2023-02-26T02:18:43.278Z,93.64
2023-02-26T02:21:58.548Z,93.63
2023-02-26T02:24:37.526Z,93.99
2023-02-26T02:27:11.280Z,94.34
2023-02-26T02:29:55.716Z,94.53
2023-02-26T02:32:29.451Z,94.92
2023-02-26T02:35:04.014Z,94.75
2023-02-26T02:37:35.980Z,95.16
2023-02-26T02:40:07.556Z,95.75
2023-02-26T02:42:39.900Z,95.83
2023-02-26T02:45:12.526Z,96.34
2023-02-26T02:47:44.208Z,96.21
2023-02-26T02:50:16.328Z,96.58
2023-02-26T02:52:49.555Z,96.84
2023-02-26T02:55:21.771Z,96.47
2023-02-26T02:57:53.625Z,96.22
2023-02-26T03:00:23.551Z,96.57
2023-02-26T03:02:58.488Z,97.07
2023-02-26T03:05:26.356Z,97.04
2023-02-26T03:07:57.584Z,96.91
2023-02-26T03:10:25.123Z,97.14
2023-02-26T03:12:52.589Z,97.54
2023-02-26T03:15:30.849Z,97.19
2023-02-26T03:18:07.403Z,97.20
2023-02-26T03:20:37.465Z,97.74
2023-02-26T03:23:10.421Z,97.55
2023-02-26T03:25:46.118Z,97.07
2023-02-26T03:28:25.408Z,97.55
2023-02-26T03:30:58.071Z,97.61
2023-02-26T03:33:33.161Z,97.67
2023-02-26T03:36:05.864Z,98.06
2023-02-26T03:38:41.966Z,98.28
2023-02-26T03:41:13.547Z,99.19
2023-02-26T03:43:47.073Z,99.62
2023-02-26T03:46:20.230Z,99.92
2023-02-26T03:48:52.381Z,100.00
2023-02-26T03:51:21.650Z,100.00
2023-02-26T03:53:53.432Z,100.00
2023-02-26T03:56:25.293Z,100.00
2023-02-26T03:58:53.256Z,100.00
2023-02-26T04:01:25.720Z,100.00
2023-02-26T04:04:00.466Z,100.00
2023-02-26T04:06:28.637Z,100.00
2023-02-26T04:08:56.386Z,100.00
2023-02-26T04:11:25.645Z,99.93
2023-02-26T04:13:53.215Z,99.62
2023-02-26T04:16:21.067Z,99.18
2023-02-26T04:18:48.553Z,98.57
2023-02-26T04:21:21.473Z,98.43
2023-02-26T04:23:49.718Z,97.98
2023-02-26T04:26:17.192Z,98.06
2023-02-26T04:28:44.656Z,98.15
2023-02-26T04:31:12.392Z,98.04
2023-02-26T04:33:39.950Z,98.21
2023-02-26T04:36:08.011Z,98.99
2023-02-26T04:38:36.839Z,98.70
2023-02-26T04:41:04.461Z,99.32
2023-02-26T04:43:31.938Z,99.18
2023-02-26T04:45:59.435Z,99.28
2023-02-26T04:48:26.933Z,99.49
2023-02-26T04:50:54.369Z,99.29
2023-02-26T04:53:22.138Z,99.26
2023-02-26T04:55:52.409Z,99.06
2023-02-26T04:58:20.227Z,99.04
2023-02-26T05:00:49.620Z,99.56
2023-02-26T05:03:17.792Z,99.41
2023-02-26T05:05:45.342Z,99.57
2023-02-26T05:08:12.904Z,99.52
2023-02-26T05:10:40.533Z,99.24
2023-02-26T05:13:09.425Z,99.37
2023-02-26T05:15:36.909Z,99.54
2023-02-26T05:18:04.504Z,99.23
2023-02-26T05:20:32.102Z,99.52
2023-02-26T05:22:59.569Z,99.38
2023-02-26T05:25:27.014Z,99.29
2023-02-26T05:27:54.508Z,99.22
2023-02-26T05:30:23.421Z,99.67
2023-02-26T05:32:50.875Z,99.77
2023-02-26T05:35:18.458Z,99.88
2023-02-26T05:37:45.946Z,100.00
2023-02-26T05:40:14.096Z,99.89
2023-02-26T05:42:41.838Z,100.00
2023-02-26T05:45:10.060Z,100.00
2023-02-26T05:47:39.669Z,100.00
2023-02-26T05:50:07.928Z,100.00
2023-02-26T05:52:35.743Z,100.00
2023-02-26T05:55:03.364Z,100.00
2023-02-26T05:57:30.997Z,100.00
2023-02-26T05:59:58.548Z,100.00
2023-02-26T06:02:26.395Z,100.00
2023-02-26T06:04:55.574Z,99.95
2023-02-26T06:07:24.384Z,99.83
2023-02-26T06:09:51.875Z,99.84
2023-02-26T06:12:19.343Z,99.40
2023-02-26T06:14:46.823Z,99.61
2023-02-26T06:17:14.296Z,99.02
2023-02-26T06:19:41.769Z,99.44
2023-02-26T06:22:10.598Z,99.34
2023-02-26T06:24:38.085Z,99.42
2023-02-26T06:27:05.544Z,99.54
2023-02-26T06:29:32.969Z,100.00
2023-02-26T06:32:00.544Z,99.76
2023-02-26T06:34:28.040Z,99.53
2023-02-26T06:36:55.624Z,99.38
2023-02-26T06:39:24.441Z,99.68
2023-02-26T06:41:51.938Z,99.23
2023-02-26T06:44:19.422Z,98.13
2023-02-26T06:46:46.906Z,98.29
2023-02-26T06:49:14.382Z,97.62
2023-02-26T06:51:41.828Z,96.76
2023-02-26T06:54:09.572Z,96.84
2023-02-26T06:56:38.396Z,96.50
2023-02-26T06:59:05.906Z,96.51
2023-02-26T07:01:33.465Z,96.73
2023-02-26T07:04:00.898Z,96.85
2023-02-26T07:06:28.424Z,96.81
2023-02-26T07:08:56.544Z,97.17
2023-02-26T07:11:24.404Z,96.78
2023-02-26T07:13:53.268Z,96.69
2023-02-26T07:16:20.728Z,96.65
2023-02-26T07:18:48.208Z,96.63
2023-02-26T07:21:15.676Z,96.21
2023-02-26T07:23:43.134Z,95.94
2023-02-26T07:26:10.555Z,96.06
2023-02-26T07:28:40.793Z,95.38
2023-02-26T07:31:09.656Z,95.22
2023-02-26T07:33:38.606Z,95.22
2023-02-26T07:36:06.556Z,95.05
2023-02-26T07:38:34.023Z,95.25
2023-02-26T07:41:01.459Z,95.81
2023-02-26T07:43:29.006Z,96.17
2023-02-26T07:45:56.466Z,96.78
2023-02-26T07:48:25.281Z,97.41
2023-02-26T07:50:53.770Z,97.07
2023-02-26T07:53:21.317Z,97.32
2023-02-26T07:55:49.010Z,97.92
2023-02-26T07:58:16.523Z,97.67
2023-02-26T08:00:44.032Z,96.97
2023-02-26T08:03:11.452Z,96.36
2023-02-26T08:05:40.217Z,96.34
2023-02-26T08:08:07.676Z,96.75
2023-02-26T08:10:35.084Z,96.53
2023-02-26T08:13:02.530Z,96.44
2023-02-26T08:15:30.157Z,96.74
2023-02-26T08:17:58.064Z,96.32
2023-02-26T08:20:25.518Z,96.65
2023-02-26T08:22:54.377Z,97.26
2023-02-26T08:25:21.844Z,97.41
2023-02-26T08:27:49.319Z,97.08
2023-02-26T08:30:16.801Z,97.81
2023-02-26T08:32:45.875Z,97.40
2023-02-26T08:35:13.423Z,97.42
2023-02-26T08:37:40.859Z,97.20
2023-02-26T08:40:13.485Z,97.19
2023-02-26T08:42:42.287Z,97.40
2023-02-26T08:45:10.846Z,96.49
2023-02-26T08:47:53.929Z,96.08
2023-02-26T08:50:23.729Z,96.16
2023-02-26T08:52:51.192Z,95.70
2023-02-26T08:55:20.057Z,95.63
2023-02-26T08:57:47.510Z,95.40
2023-02-26T09:00:18.290Z,95.37
2023-02-26T09:02:45.733Z,94.89
2023-02-26T09:05:14.856Z,94.56
2023-02-26T09:07:42.894Z,93.79
2023-02-26T09:10:12.000Z,94.11
2023-02-26T09:12:40.782Z,94.57
2023-02-26T09:15:10.911Z,94.78
2023-02-26T09:17:38.854Z,93.85
2023-02-26T09:20:08.956Z,93.98
2023-02-26T09:22:36.678Z,93.39
2023-02-26T09:25:04.833Z,92.21
2023-02-26T09:27:32.469Z,91.82
2023-02-26T09:30:01.258Z,92.64
2023-02-26T09:32:28.832Z,91.84
2023-02-26T09:34:56.379Z,91.03
2023-02-26T09:37:23.846Z,91.21
2023-02-26T09:39:53.317Z,91.05
2023-02-26T09:42:36.142Z,89.95
2023-02-26T09:45:07.003Z,89.69
2023-02-26T09:47:41.641Z,89.28
2023-02-26T09:50:17.566Z,88.40
2023-02-26T09:52:49.493Z,89.34
2023-02-26T09:55:24.760Z,89.43
2023-02-26T09:57:55.339Z,89.47
2023-02-26T10:00:33.734Z,87.71
2023-02-26T10:03:13.250Z,87.39
2023-02-26T10:05:44.116Z,85.71
2023-02-26T10:08:16.753Z,85.74
2023-02-26T10:10:51.263Z,84.01
2023-02-26T10:13:26.785Z,85.17
2023-02-26T10:16:09.225Z,84.56
2023-02-26T10:18:44.151Z,81.07
2023-02-26T10:21:16.259Z,78.89
2023-02-26T10:23:48.860Z,82.49
2023-02-26T10:26:21.227Z,81.88
2023-02-26T10:28:58.702Z,80.72
2023-02-26T10:31:36.351Z,81.17
2023-02-26T10:34:16.181Z,79.30
2023-02-26T10:36:52.657Z,79.37
2023-02-26T10:39:28.830Z,80.44
2023-02-26T10:42:00.070Z,80.12
2023-02-26T10:44:33.442Z,82.01
2023-02-26T10:47:10.985Z,83.65
2023-02-26T10:49:52.132Z,81.64
2023-02-26T10:52:22.152Z,79.98
2023-02-26T10:55:03.728Z,78.85
2023-02-26T10:57:36.294Z,79.95
2023-02-26T11:00:06.666Z,79.58
2023-02-26T11:02:39.362Z,80.08
2023-02-26T11:05:16.363Z,79.27
2023-02-26T11:07:44.591Z,79.31
2023-02-26T11:10:18.913Z,79.08
2023-02-26T11:12:47.121Z,79.49
2023-02-26T11:15:16.268Z,78.91
2023-02-26T11:17:47.017Z,75.31
2023-02-26T11:20:20.209Z,76.74
2023-02-26T11:22:51.706Z,76.75
2023-02-26T11:25:24.440Z,77.46
2023-02-26T11:28:00.968Z,76.73
2023-02-26T11:30:32.259Z,76.49
2023-02-26T11:33:13.868Z,76.76
2023-02-26T11:35:41.720Z,75.85
2023-02-26T11:38:17.247Z,75.17
2023-02-26T11:40:49.498Z,73.40
2023-02-26T11:43:20.335Z,72.96
2023-02-26T11:45:50.472Z,72.71
2023-02-26T11:48:24.552Z,72.78
2023-02-26T11:50:56.245Z,71.16
2023-02-26T11:53:31.062Z,70.63
2023-02-26T11:56:02.540Z,70.26
2023-02-26T11:58:36.189Z,70.56
2023-02-26T12:01:05.544Z,70.08
2023-02-26T12:03:39.988Z,69.80
2023-02-26T12:06:09.077Z,69.92
2023-02-26T12:08:39.142Z,65.68
2023-02-26T12:11:17.359Z,66.68
2023-02-26T12:14:02.425Z,66.13
2023-02-26T12:16:40.351Z,65.96
2023-02-26T12:19:16.218Z,67.25
2023-02-26T12:22:16.023Z,66.91
2023-02-26T12:25:04.179Z,64.95
2023-02-26T12:27:44.651Z,65.19
2023-02-26T12:30:26.306Z,61.80
2023-02-26T12:33:08.618Z,60.59
2023-02-26T12:35:46.341Z,62.63
2023-02-26T12:38:21.637Z,62.31
2023-02-26T12:41:11.452Z,63.09
2023-02-26T12:43:46.921Z,63.01
2023-02-26T12:46:27.397Z,63.20
2023-02-26T12:49:09.427Z,62.97
2023-02-26T12:51:54.390Z,63.61
2023-02-26T12:54:38.448Z,64.19
2023-02-26T12:57:24.704Z,64.65
2023-02-26T13:00:13.609Z,64.83
2023-02-26T13:03:08.670Z,64.31
2023-02-26T13:05:48.516Z,64.60
2023-02-26T13:08:25.255Z,65.17
2023-02-26T13:11:01.720Z,65.92
2023-02-26T13:13:42.887Z,66.15
2023-02-26T13:16:25.061Z,64.50
2023-02-26T13:19:02.246Z,64.61
2023-02-26T13:21:34.329Z,64.83
2023-02-26T13:24:07.398Z,65.36
2023-02-26T13:26:36.741Z,66.43
2023-02-26T13:29:07.179Z,64.54
2023-02-26T13:31:40.817Z,64.79
2023-02-26T13:34:15.263Z,64.51
2023-02-26T13:36:44.471Z,63.82
2023-02-26T13:39:29.369Z,64.54
2023-02-26T13:42:03.829Z,64.42
2023-02-26T13:44:43.521Z,64.50
2023-02-26T13:47:33.316Z,62.49
2023-02-26T13:50:17.288Z,61.77
2023-02-26T13:52:52.920Z,61.55
2023-02-26T13:55:52.709Z,62.26
2023-02-26T13:58:36.176Z,62.31
2023-02-26T14:01:10.832Z,62.46
2023-02-26T14:03:43.516Z,62.81
2023-02-26T14:06:24.216Z,61.72
2023-02-26T14:08:55.144Z,62.56
2023-02-26T14:12:01.165Z,63.95
2023-02-26T14:14:40.549Z,63.08
2023-02-26T14:17:30.662Z,62.20
2023-02-26T14:20:29.149Z,63.25
2023-02-26T14:23:13.483Z,63.39
2023-02-26T14:25:46.689Z,62.09
2023-02-26T14:28:41.224Z,61.72
2023-02-26T14:31:17.316Z,62.06
2023-02-26T14:33:48.268Z,62.17
2023-02-26T14:36:21.137Z,62.40
2023-02-26T14:38:49.743Z,62.19
2023-02-26T14:41:27.070Z,63.64
2023-02-26T14:44:02.346Z,64.15
2023-02-26T14:46:31.571Z,64.45
2023-02-26T14:48:59.209Z,64.26
2023-02-26T14:51:39.086Z,64.73
2023-02-26T14:54:32.978Z,65.81
2023-02-26T14:57:04.424Z,63.67
2023-02-26T14:59:47.940Z,63.18
2023-02-26T15:02:27.554Z,62.20
2023-02-26T15:05:23.554Z,59.41
2023-02-26T15:08:08.695Z,60.80
2023-02-26T15:10:53.802Z,57.41
2023-02-26T15:13:43.074Z,57.96
2023-02-26T15:16:23.277Z,58.66
2023-02-26T15:19:09.222Z,59.36
2023-02-26T15:21:48.623Z,60.03
2023-02-26T15:24:16.732Z,60.47
2023-02-26T15:26:49.232Z,62.12
2023-02-26T15:29:17.240Z,62.12
2023-02-26T15:31:48.915Z,62.11
2023-02-26T15:34:17.968Z,60.32
2023-02-26T15:36:47.599Z,59.58
2023-02-26T15:39:17.408Z,59.30
2023-02-26T15:41:48.277Z,60.02
2023-02-26T15:44:20.680Z,59.77
2023-02-26T15:46:51.237Z,59.94
2023-02-26T15:49:26.129Z,60.54
2023-02-26T15:51:54.672Z,61.06
2023-02-26T15:54:26.231Z,62.45
2023-02-26T15:56:54.110Z,63.40
2023-02-26T15:59:26.340Z,63.82
2023-02-26T16:01:56.008Z,62.05
2023-02-26T16:04:25.116Z,59.96
2023-02-26T16:06:55.603Z,58.67
2023-02-26T16:09:28.627Z,58.57
2023-02-26T16:11:59.511Z,58.73
2023-02-26T16:14:30.966Z,58.83
2023-02-26T16:16:58.986Z,59.64
2023-02-26T16:19:34.634Z,60.43
2023-02-26T16:22:05.214Z,60.31
2023-02-26T16:24:34.033Z,60.26
2023-02-26T16:27:04.774Z,61.65
2023-02-26T16:29:34.718Z,62.10
2023-02-26T16:32:04.163Z,62.76
2023-02-26T16:34:38.508Z,62.92
2023-02-26T16:37:25.982Z,63.60
2023-02-26T16:39:57.515Z,63.28
2023-02-26T16:42:44.494Z,62.39
2023-02-26T16:45:19.842Z,63.15
2023-02-26T16:47:51.324Z,63.09
2023-02-26T16:50:24.282Z,63.45
2023-02-26T16:53:00.636Z,62.64
2023-02-26T16:55:30.503Z,63.55
2023-02-26T16:57:59.231Z,63.39
2023-02-26T17:00:30.858Z,64.10
2023-02-26T17:03:01.739Z,64.37
2023-02-26T17:05:34.740Z,64.53
2023-02-26T17:08:16.399Z,65.23
2023-02-26T17:10:48.077Z,64.96
2023-02-26T17:13:17.429Z,64.20
2023-02-26T17:15:46.800Z,64.26
2023-02-26T17:18:14.637Z,65.25
2023-02-26T17:20:43.759Z,65.82
2023-02-26T17:23:15.105Z,65.52
2023-02-26T17:25:44.816Z,65.84
2023-02-26T17:28:16.805Z,65.99
2023-02-26T17:30:44.264Z,65.92
2023-02-26T17:33:13.851Z,66.11
2023-02-26T17:35:43.089Z,65.95
2023-02-26T17:38:13.083Z,66.06
2023-02-26T17:40:42.429Z,65.79
2023-02-26T17:43:10.005Z,65.69
2023-02-26T17:45:39.952Z,66.20
2023-02-26T17:48:08.018Z,66.55
2023-02-26T17:50:43.800Z,66.74
2023-02-26T17:53:12.630Z,66.14
2023-02-26T17:55:40.934Z,66.59
2023-02-26T17:58:14.329Z,66.42
2023-02-26T18:00:42.826Z,67.28
2023-02-26T18:03:11.210Z,67.29
2023-02-26T18:05:41.014Z,67.50
2023-02-26T18:08:18.559Z,67.13
2023-02-26T18:10:46.256Z,68.04
2023-02-26T18:13:13.777Z,67.80
2023-02-26T18:15:44.930Z,67.89
2023-02-26T18:18:13.397Z,67.60
2023-02-26T18:20:41.788Z,68.24
2023-02-26T18:23:12.328Z,68.32
2023-02-26T18:25:42.035Z,68.26
2023-02-26T18:28:15.310Z,68.05
2023-02-26T18:30:44.155Z,68.73
2023-02-26T18:33:16.859Z,69.10
2023-02-26T18:35:47.077Z,69.34
2023-02-26T18:38:15.852Z,69.34
2023-02-26T18:40:45.488Z,69.65
2023-02-26T18:43:13.751Z,69.68
2023-02-26T18:45:42.007Z,70.17
2023-02-26T18:48:13.722Z,70.25
2023-02-26T18:50:41.452Z,70.26
2023-02-26T18:53:09.782Z,70.69
2023-02-26T18:55:37.482Z,70.67
2023-02-26T18:58:06.530Z,70.81
2023-02-26T19:00:35.320Z,71.69
2023-02-26T19:03:03.046Z,71.16
2023-02-26T19:05:30.643Z,71.65
2023-02-26T19:07:58.194Z,71.50
2023-02-26T19:10:29.375Z,72.05
2023-02-26T19:12:57.238Z,72.20
2023-02-26T19:15:29.428Z,72.12
2023-02-26T19:17:57.085Z,72.12
2023-02-26T19:20:24.800Z,72.23
2023-02-26T19:22:52.418Z,72.21
2023-02-26T19:25:23.678Z,72.15
2023-02-26T19:27:53.402Z,72.92
2023-02-26T19:30:21.777Z,72.74
2023-02-26T19:32:51.230Z,72.82
2023-02-26T19:35:19.543Z,72.77
2023-02-26T19:37:47.769Z,73.26
2023-02-26T19:40:16.730Z,73.46
2023-02-26T19:42:44.810Z,73.72
2023-02-26T19:45:13.564Z,73.71
2023-02-26T19:47:44.362Z,73.74
2023-02-26T19:50:15.047Z,74.06
2023-02-26T19:52:42.633Z,73.79
2023-02-26T19:55:11.178Z,74.06
2023-02-26T19:57:38.748Z,74.60
2023-02-26T20:00:07.882Z,74.51
2023-02-26T20:02:35.735Z,74.59
2023-02-26T20:05:03.655Z,74.99
2023-02-26T20:07:32.687Z,75.10
2023-02-26T20:10:00.781Z,75.09
2023-02-26T20:12:30.243Z,75.25
2023-02-26T20:14:58.087Z,75.15
2023-02-26T20:17:25.695Z,75.27
2023-02-26T20:19:53.354Z,75.62
2023-02-26T20:22:22.838Z,75.82
2023-02-26T20:24:53.011Z,75.86
2023-02-26T20:27:20.913Z,76.01
2023-02-26T20:29:50.800Z,76.16
2023-02-26T20:32:18.810Z,75.92
2023-02-26T20:34:46.468Z,76.35
2023-02-26T20:37:14.000Z,76.21
2023-02-26T20:39:41.773Z,76.60
2023-02-26T20:42:12.994Z,76.33
2023-02-26T20:44:40.641Z,76.47
2023-02-26T20:47:08.263Z,76.36
2023-02-26T20:49:35.986Z,76.25
2023-02-26T20:52:03.764Z,76.84
2023-02-26T20:54:31.476Z,77.02
2023-02-26T20:56:59.335Z,76.89
2023-02-26T20:59:28.342Z,77.19
2023-02-26T21:01:57.095Z,77.33
2023-02-26T21:04:25.101Z,77.36
2023-02-26T21:06:52.777Z,77.62
2023-02-26T21:09:20.386Z,77.74
2023-02-26T21:11:48.408Z,77.68
2023-02-26T21:14:15.920Z,77.62
2023-02-26T21:16:45.008Z,77.61
2023-02-26T21:19:12.806Z,77.86
2023-02-26T21:21:40.411Z,77.49
2023-02-26T21:24:08.749Z,77.86
2023-02-26T21:26:36.321Z,77.78
2023-02-26T21:29:04.832Z,78.11
2023-02-26T21:31:32.461Z,78.22
2023-02-26T21:34:17.319Z,78.24
2023-02-26T21:36:49.276Z,77.81
2023-02-26T21:39:17.117Z,78.16
2023-02-26T21:41:44.703Z,78.18
2023-02-26T21:44:12.321Z,77.99
2023-02-26T21:46:40.020Z,78.48
2023-02-26T21:49:09.044Z,78.75
2023-02-26T21:51:37.140Z,78.79
2023-02-26T21:54:05.168Z,78.52
2023-02-26T21:56:33.446Z,78.83
2023-02-26T21:59:05.785Z,79.01
2023-02-26T22:01:33.955Z,79.08
2023-02-26T22:04:03.831Z,79.25
2023-02-26T22:06:32.853Z,79.06
2023-02-26T22:09:00.505Z,78.98
2023-02-26T22:11:28.792Z,79.23
2023-02-26T22:13:56.735Z,79.27
2023-02-26T22:16:24.759Z,79.47
2023-02-26T22:18:52.487Z,79.88
2023-02-26T22:21:20.213Z,79.92
2023-02-26T22:23:49.249Z,80.19
2023-02-26T22:26:17.084Z,80.16
2023-02-26T22:28:44.704Z,80.20
2023-02-26T22:31:12.469Z,80.23
2023-02-26T22:33:40.312Z,80.26
2023-02-26T22:36:08.784Z,80.94
2023-02-26T22:38:36.595Z,80.68
2023-02-26T22:41:05.844Z,80.37
2023-02-26T22:43:33.587Z,81.03
2023-02-26T22:46:01.173Z,81.38
2023-02-26T22:48:28.920Z,81.51
2023-02-26T22:50:56.427Z,81.06
2023-02-26T22:53:24.047Z,81.09
2023-02-26T22:55:54.212Z,81.27
2023-02-26T22:58:23.162Z,81.57
2023-02-26T23:00:52.630Z,80.73
2023-02-26T23:03:20.127Z,81.04
2023-02-26T23:05:47.704Z,80.84
2023-02-26T23:08:15.179Z,80.23
2023-02-26T23:10:42.635Z,80.70
2023-02-26T23:13:10.104Z,80.42
2023-02-26T23:15:39.122Z,80.31
2023-02-26T23:18:06.938Z,80.13
2023-02-26T23:20:34.447Z,80.54
2023-02-26T23:23:01.912Z,80.56
2023-02-26T23:25:29.406Z,80.22
2023-02-26T23:27:57.133Z,80.53
2023-02-26T23:30:24.967Z,80.46
2023-02-26T23:32:54.830Z,80.51
2023-02-26T23:35:22.283Z,80.99
2023-02-26T23:37:49.747Z,80.41
2023-02-26T23:40:17.577Z,80.50
2023-02-26T23:42:45.558Z,80.85
2023-02-26T23:45:13.180Z,81.08
2023-02-26T23:47:41.000Z,80.87
2023-02-26T23:50:11.480Z,81.72
2023-02-26T23:52:38.964Z,81.94
2023-02-26T23:55:07.552Z,81.78
2023-02-26T23:57:35.275Z,82.03
